Terminal Aerodrome Forecast
Issued by NWS

Home | Current Version | Previous Version | Text Only | Print | Product List | Glossary On
Versions: 1 2 3 4 5 6 7 8 9 10 11 12
000
FTUS46 KPDT 222320
TAFDLS
TAF
KDLS 222320Z 2300/2324 08007KT P6SM FEW250
     FM230400 VRB03KT P6SM FEW250
     FM231700 32008KT P6SM FEW200
     FM232100 32016G26KT P6SM FEW200=

USA.gov is the U.S. government's official web portal to all federal, state and local government web resources and services.